createdAt,value
2023-03-06T00:00:27.266Z,995.5
2023-03-06T00:01:26.049Z,995.51
2023-03-06T00:02:25.990Z,995.48
2023-03-06T00:03:25.959Z,995.5
2023-03-06T00:04:25.925Z,995.5
2023-03-06T00:05:25.926Z,995.46
2023-03-06T00:06:25.854Z,995.46
2023-03-06T00:07:25.816Z,995.47
2023-03-06T00:08:25.799Z,995.43
2023-03-06T00:09:25.753Z,995.39
2023-03-06T00:10:25.714Z,995.38
2023-03-06T00:11:25.678Z,995.37
2023-03-06T00:12:25.644Z,995.39
2023-03-06T00:13:25.609Z,995.4
2023-03-06T00:14:25.589Z,995.43
2023-03-06T00:15:25.538Z,995.44
2023-03-06T00:16:25.545Z,995.4
2023-03-06T00:17:25.493Z,995.36
2023-03-06T00:18:25.440Z,995.38
2023-03-06T00:19:25.403Z,995.37
2023-03-06T00:20:25.365Z,995.37
2023-03-06T00:21:25.330Z,995.34
2023-03-06T00:22:25.296Z,995.29
2023-03-06T00:23:25.261Z,995.29
2023-03-06T00:24:25.227Z,995.29
2023-03-06T00:25:25.195Z,995.28
2023-03-06T00:26:25.163Z,995.27
2023-03-06T00:27:25.120Z,995.26
2023-03-06T00:28:25.085Z,995.26
2023-03-06T00:29:25.051Z,995.22
2023-03-06T00:30:25.025Z,995.21
2023-03-06T00:31:25.040Z,995.25
2023-03-06T00:32:24.972Z,995.21
2023-03-06T00:33:24.944Z,995.22
2023-03-06T00:34:24.876Z,995.24
2023-03-06T00:35:24.887Z,995.19
2023-03-06T00:36:24.804Z,995.15
2023-03-06T00:37:24.777Z,995.21
2023-03-06T00:38:24.742Z,995.19
2023-03-06T00:39:24.700Z,995.13
2023-03-06T00:40:24.665Z,995.08
2023-03-06T00:41:24.632Z,995.1
2023-03-06T00:42:24.600Z,995.09
2023-03-06T00:43:24.560Z,995.1
2023-03-06T00:44:24.524Z,995.09
2023-03-06T00:45:24.544Z,995.06
2023-03-06T00:46:24.459Z,995.05
2023-03-06T00:47:24.430Z,994.97
2023-03-06T00:48:24.393Z,995.02
2023-03-06T00:49:24.378Z,994.98
2023-03-06T00:50:24.314Z,994.95
2023-03-06T00:51:24.281Z,994.94
2023-03-06T00:52:24.244Z,994.92
2023-03-06T00:53:24.209Z,994.84
2023-03-06T00:54:24.174Z,994.88
2023-03-06T00:55:24.141Z,994.89
2023-03-06T00:56:24.120Z,994.84
2023-03-06T00:57:24.071Z,994.81
2023-03-06T00:58:24.034Z,994.81
2023-03-06T00:59:24.001Z,994.84
2023-03-06T01:00:23.964Z,994.79
2023-03-06T01:01:23.956Z,994.78
2023-03-06T01:02:24.012Z,994.83
2023-03-06T01:03:23.859Z,994.82
2023-03-06T01:04:23.823Z,994.82
2023-03-06T01:05:23.815Z,994.82
2023-03-06T01:06:23.765Z,994.8
2023-03-06T01:07:23.721Z,994.81
2023-03-06T01:08:23.684Z,994.75
2023-03-06T01:09:23.649Z,994.73
2023-03-06T01:10:23.618Z,994.71
2023-03-06T01:11:23.589Z,994.7
2023-03-06T01:12:23.688Z,994.66
2023-03-06T01:13:23.508Z,994.68
2023-03-06T01:14:23.472Z,994.69
2023-03-06T01:15:23.440Z,994.67
2023-03-06T01:16:23.418Z,994.63
2023-03-06T01:17:23.374Z,994.68
2023-03-06T01:18:23.330Z,994.66
2023-03-06T01:19:23.314Z,994.64
2023-03-06T01:20:23.278Z,994.62
2023-03-06T01:21:23.264Z,994.68
2023-03-06T01:22:23.191Z,994.63
2023-03-06T01:23:23.163Z,994.62
2023-03-06T01:24:23.127Z,994.58
2023-03-06T01:25:23.086Z,994.59
2023-03-06T01:26:23.055Z,994.57
2023-03-06T01:27:23.019Z,994.54
2023-03-06T01:28:22.991Z,994.55
2023-03-06T01:29:22.964Z,994.54
2023-03-06T01:30:22.968Z,994.49
2023-03-06T01:31:22.889Z,994.52
2023-03-06T01:32:22.878Z,994.5
2023-03-06T01:33:22.806Z,994.48
2023-03-06T01:34:22.772Z,994.43
2023-03-06T01:35:22.767Z,994.43
2023-03-06T01:36:22.703Z,994.46
2023-03-06T01:37:22.692Z,994.49
2023-03-06T01:38:22.635Z,994.43
2023-03-06T01:39:22.599Z,994.44
2023-03-06T01:40:22.567Z,994.48
2023-03-06T01:41:22.528Z,994.45
2023-03-06T01:42:22.497Z,994.42
2023-03-06T01:43:22.464Z,994.47
2023-03-06T01:44:22.428Z,994.41
2023-03-06T01:45:22.392Z,994.43
2023-03-06T01:46:22.357Z,994.42
2023-03-06T01:47:22.323Z,994.4
2023-03-06T01:48:22.291Z,994.41
2023-03-06T01:49:22.256Z,994.4
2023-03-06T01:50:22.221Z,994.39
2023-03-06T01:51:22.185Z,994.42
2023-03-06T01:52:22.149Z,994.4
2023-03-06T01:53:22.138Z,994.38
2023-03-06T01:54:22.080Z,994.42
2023-03-06T01:55:22.050Z,994.38
2023-03-06T01:56:22.013Z,994.41
2023-03-06T01:57:21.978Z,994.37
2023-03-06T01:58:21.942Z,994.32
2023-03-06T01:59:21.913Z,994.31
2023-03-06T02:00:21.880Z,994.34
2023-03-06T02:01:21.888Z,994.28
2023-03-06T02:02:21.849Z,994.34
2023-03-06T02:03:21.780Z,994.28
2023-03-06T02:04:21.732Z,994.27
2023-03-06T02:05:21.706Z,994.28
2023-03-06T02:06:21.673Z,994.28
2023-03-06T02:07:21.649Z,994.18
2023-03-06T02:08:21.592Z,994.26
2023-03-06T02:09:21.581Z,994.25
2023-03-06T02:10:21.523Z,994.21
2023-03-06T02:11:21.536Z,994.23
2023-03-06T02:12:21.464Z,994.19
2023-03-06T02:13:21.420Z,994.21
2023-03-06T02:14:21.390Z,994.18
2023-03-06T02:15:21.352Z,994.16
2023-03-06T02:16:21.364Z,994.15
2023-03-06T02:17:21.283Z,994.12
2023-03-06T02:18:21.245Z,994.16
2023-03-06T02:19:21.214Z,994.13
2023-03-06T02:20:21.180Z,994.17
2023-03-06T02:21:21.141Z,994.15
2023-03-06T02:22:21.109Z,994.15
2023-03-06T02:23:21.073Z,994.09
2023-03-06T02:24:21.036Z,994.12
2023-03-06T02:25:21.028Z,994.11
2023-03-06T02:26:20.974Z,994.1
2023-03-06T02:27:20.945Z,994.04
2023-03-06T02:28:20.898Z,994.03
2023-03-06T02:29:20.865Z,994.04
2023-03-06T02:30:20.829Z,994.06
2023-03-06T02:31:20.849Z,994
2023-03-06T02:32:20.851Z,994.06
2023-03-06T02:33:20.724Z,994
2023-03-06T02:34:20.693Z,994.01
2023-03-06T02:35:20.660Z,993.95
2023-03-06T02:36:20.620Z,993.97
2023-03-06T02:37:20.585Z,993.94
2023-03-06T02:38:20.553Z,993.94
2023-03-06T02:39:20.523Z,993.94
2023-03-06T02:40:20.480Z,993.94
2023-03-06T02:41:20.471Z,993.91
2023-03-06T02:42:20.411Z,993.88
2023-03-06T02:43:20.377Z,993.89
2023-03-06T02:44:20.340Z,993.88
2023-03-06T02:45:20.308Z,993.87
2023-03-06T02:46:20.423Z,993.83
2023-03-06T02:47:20.238Z,993.81
2023-03-06T02:48:20.202Z,993.78
2023-03-06T02:49:20.164Z,993.78
2023-03-06T02:50:20.128Z,993.82
2023-03-06T02:51:20.096Z,993.79
2023-03-06T02:52:20.085Z,993.77
2023-03-06T02:53:20.036Z,993.77
2023-03-06T02:54:19.986Z,993.67
2023-03-06T02:55:19.953Z,993.75
2023-03-06T02:56:19.919Z,993.75
2023-03-06T02:57:19.914Z,993.68
2023-03-06T02:58:19.870Z,993.7
2023-03-06T02:59:19.817Z,993.65
2023-03-06T03:00:19.780Z,993.64
2023-03-06T03:01:19.744Z,993.61
2023-03-06T03:02:19.711Z,993.64
2023-03-06T03:03:19.678Z,993.67
2023-03-06T03:04:19.673Z,993.66
2023-03-06T03:05:19.603Z,993.67
2023-03-06T03:06:19.570Z,993.61
2023-03-06T03:07:19.532Z,993.56
2023-03-06T03:08:19.497Z,993.59
2023-03-06T03:09:19.461Z,993.53
2023-03-06T03:10:19.428Z,993.63
2023-03-06T03:11:19.391Z,993.6
2023-03-06T03:12:19.357Z,993.58
2023-03-06T03:13:19.347Z,993.61
2023-03-06T03:14:19.290Z,993.58
2023-03-06T03:15:19.252Z,993.57
2023-03-06T03:16:19.260Z,993.56
2023-03-06T03:17:19.181Z,993.58
2023-03-06T03:18:19.148Z,993.55
2023-03-06T03:19:19.134Z,993.56
2023-03-06T03:20:19.084Z,993.62
2023-03-06T03:21:19.049Z,993.58
2023-03-06T03:22:19.023Z,993.58
2023-03-06T03:23:18.974Z,993.58
2023-03-06T03:24:18.980Z,993.55
2023-03-06T03:25:18.922Z,993.53
2023-03-06T03:26:18.884Z,993.5
2023-03-06T03:27:18.836Z,993.56
2023-03-06T03:28:18.803Z,993.54
2023-03-06T03:29:18.788Z,993.53
2023-03-06T03:30:18.732Z,993.49
2023-03-06T03:31:18.765Z,993.49
2023-03-06T03:32:18.702Z,993.46
2023-03-06T03:33:18.626Z,993.48
2023-03-06T03:34:18.591Z,993.5
2023-03-06T03:35:18.577Z,993.48
2023-03-06T03:36:18.523Z,993.44
2023-03-06T03:37:18.485Z,993.45
2023-03-06T03:38:18.450Z,993.46
2023-03-06T03:39:18.416Z,993.43
2023-03-06T03:40:18.382Z,993.42
2023-03-06T03:41:18.353Z,993.4
2023-03-06T03:42:18.314Z,993.39
2023-03-06T03:43:18.273Z,993.41
2023-03-06T03:44:18.241Z,993.43
2023-03-06T03:45:18.228Z,993.39
2023-03-06T03:46:18.196Z,993.41
2023-03-06T03:47:18.151Z,993.41
2023-03-06T03:48:18.105Z,993.41
2023-03-06T03:49:18.063Z,993.41
2023-03-06T03:50:18.029Z,993.41
2023-03-06T03:51:17.992Z,993.4
2023-03-06T03:52:17.958Z,993.4
2023-03-06T03:53:17.925Z,993.39
2023-03-06T03:54:17.885Z,993.38
2023-03-06T03:55:17.851Z,993.31
2023-03-06T03:56:17.867Z,993.36
2023-03-06T03:57:17.830Z,993.33
2023-03-06T03:58:17.743Z,993.32
2023-03-06T03:59:17.710Z,993.28
2023-03-06T04:00:17.671Z,993.28
2023-03-06T04:01:17.675Z,993.29
2023-03-06T04:02:17.652Z,993.31
2023-03-06T04:03:17.569Z,993.29
2023-03-06T04:04:17.530Z,993.27
2023-03-06T04:05:17.498Z,993.25
2023-03-06T04:06:17.460Z,993.26
2023-03-06T04:07:17.428Z,993.25
2023-03-06T04:08:17.393Z,993.23
2023-03-06T04:09:17.358Z,993.2
2023-03-06T04:10:17.330Z,993.21
2023-03-06T04:11:17.285Z,993.25
2023-03-06T04:12:17.253Z,993.26
2023-03-06T04:13:17.215Z,993.22
2023-03-06T04:14:17.178Z,993.21
2023-03-06T04:15:17.149Z,993.24
2023-03-06T04:16:17.189Z,993.23
2023-03-06T04:17:17.098Z,993.2
2023-03-06T04:18:17.036Z,993.22
2023-03-06T04:19:17.021Z,993.22
2023-03-06T04:20:16.974Z,993.22
2023-03-06T04:21:16.938Z,993.2
2023-03-06T04:22:16.895Z,993.22
2023-03-06T04:23:16.866Z,993.17
2023-03-06T04:24:16.827Z,993.18
2023-03-06T04:25:16.808Z,993.17
2023-03-06T04:26:16.759Z,993.15
2023-03-06T04:27:16.738Z,993.16
2023-03-06T04:28:16.685Z,993.13
2023-03-06T04:29:16.652Z,993.16
2023-03-06T04:30:16.626Z,993.14
2023-03-06T04:31:16.615Z,993.14
2023-03-06T04:32:16.573Z,993.12
2023-03-06T04:33:16.550Z,993.08
2023-03-06T04:34:16.478Z,993.08
2023-03-06T04:35:16.444Z,993.08
2023-03-06T04:36:16.410Z,993.06
2023-03-06T04:37:16.386Z,993.05
2023-03-06T04:38:16.344Z,993.03
2023-03-06T04:39:16.307Z,992.99
2023-03-06T04:40:16.270Z,992.97
2023-03-06T04:41:16.237Z,992.97
2023-03-06T04:42:16.209Z,992.97
2023-03-06T04:43:16.166Z,992.95
2023-03-06T04:44:16.131Z,992.95
2023-03-06T04:45:16.093Z,992.93
2023-03-06T04:46:16.063Z,992.88
2023-03-06T04:47:18.178Z,992.87
2023-03-06T04:48:15.990Z,992.89
2023-03-06T04:49:15.981Z,992.9
2023-03-06T04:50:15.921Z,992.87
2023-03-06T04:51:15.883Z,992.83
2023-03-06T04:52:15.854Z,992.86
2023-03-06T04:53:15.813Z,992.85
2023-03-06T04:54:17.402Z,992.83
2023-03-06T04:55:15.744Z,992.76
2023-03-06T04:56:15.712Z,992.78
2023-03-06T04:57:15.674Z,992.79
2023-03-06T04:58:15.638Z,992.8
2023-03-06T04:59:15.604Z,992.75
2023-03-06T05:00:15.580Z,992.76
2023-03-06T05:01:15.602Z,992.78
2023-03-06T05:02:15.523Z,992.77
2023-03-06T05:03:15.466Z,992.77
2023-03-06T05:04:15.426Z,992.72
2023-03-06T05:05:15.422Z,992.78
2023-03-06T05:06:15.363Z,992.74
2023-03-06T05:07:15.318Z,992.73
2023-03-06T05:08:15.302Z,992.76
2023-03-06T05:09:15.247Z,992.74
2023-03-06T05:10:15.212Z,992.75
2023-03-06T05:11:15.176Z,992.75
2023-03-06T05:12:15.149Z,992.77
2023-03-06T05:13:15.107Z,992.74
2023-03-06T05:14:15.112Z,992.75
2023-03-06T05:15:15.044Z,992.8
2023-03-06T05:16:15.022Z,992.74
2023-03-06T05:17:14.978Z,992.72
2023-03-06T05:18:14.932Z,992.71
2023-03-06T05:19:15.535Z,992.74
2023-03-06T05:20:14.864Z,992.71
2023-03-06T05:21:14.847Z,992.77
2023-03-06T05:22:14.792Z,992.68
2023-03-06T05:23:14.758Z,992.73
2023-03-06T05:24:14.720Z,992.73
2023-03-06T05:25:14.683Z,992.64
2023-03-06T05:26:14.648Z,992.72
2023-03-06T05:27:16.853Z,992.71
2023-03-06T05:28:14.579Z,992.71
2023-03-06T05:29:14.541Z,992.68
2023-03-06T05:30:14.511Z,992.71
2023-03-06T05:31:14.472Z,992.65
2023-03-06T05:32:14.557Z,992.68
2023-03-06T05:33:14.401Z,992.68
2023-03-06T05:34:14.365Z,992.67
2023-03-06T05:35:14.330Z,992.68
2023-03-06T05:36:14.312Z,992.68
2023-03-06T05:37:14.287Z,992.72
2023-03-06T05:38:14.225Z,992.68
2023-03-06T05:39:14.192Z,992.72
2023-03-06T05:40:14.155Z,992.73
2023-03-06T05:41:14.135Z,992.75
2023-03-06T05:42:14.091Z,992.69
2023-03-06T05:43:14.052Z,992.71
2023-03-06T05:44:14.014Z,992.74
2023-03-06T05:45:13.980Z,992.63
2023-03-06T05:46:13.970Z,992.67
2023-03-06T05:47:13.913Z,992.7
2023-03-06T05:48:13.880Z,992.7
2023-03-06T05:49:13.858Z,992.7
2023-03-06T05:50:13.841Z,992.68
2023-03-06T05:51:13.778Z,992.69
2023-03-06T05:52:13.737Z,992.67
2023-03-06T05:53:13.732Z,992.68
2023-03-06T05:54:13.661Z,992.63
2023-03-06T05:55:13.630Z,992.63
2023-03-06T05:56:13.589Z,992.6
2023-03-06T05:57:13.556Z,992.62
2023-03-06T05:58:13.515Z,992.61
2023-03-06T05:59:13.486Z,992.61
2023-03-06T06:00:13.448Z,992.57
2023-03-06T06:01:13.409Z,992.6
2023-03-06T06:02:13.481Z,992.62
2023-03-06T06:03:13.372Z,992.64
2023-03-06T06:04:13.300Z,992.62
2023-03-06T06:05:13.346Z,992.6
2023-03-06T06:06:13.228Z,992.64
2023-03-06T06:07:13.196Z,992.67
2023-03-06T06:08:13.158Z,992.63
2023-03-06T06:09:14.000Z,992.61
2023-03-06T06:10:13.088Z,992.65
2023-03-06T06:11:13.052Z,992.65
2023-03-06T06:12:13.021Z,992.62
2023-03-06T06:13:12.993Z,992.6
2023-03-06T06:14:12.952Z,992.58
2023-03-06T06:15:12.923Z,992.6
2023-03-06T06:16:12.945Z,992.62
2023-03-06T06:17:12.848Z,992.53
2023-03-06T06:18:12.807Z,992.63
2023-03-06T06:19:12.775Z,992.61
2023-03-06T06:20:12.730Z,992.64
2023-03-06T06:21:12.698Z,992.61
2023-03-06T06:22:12.661Z,992.62
2023-03-06T06:23:12.624Z,992.61
2023-03-06T06:24:12.588Z,992.64
2023-03-06T06:25:12.577Z,992.61
2023-03-06T06:26:12.534Z,992.57
2023-03-06T06:27:12.484Z,992.6
2023-03-06T06:28:12.451Z,992.61
2023-03-06T06:29:12.410Z,992.61
2023-03-06T06:30:12.384Z,992.63
2023-03-06T06:31:12.545Z,992.59
2023-03-06T06:32:12.339Z,992.59
2023-03-06T06:33:12.266Z,992.5
2023-03-06T06:34:12.236Z,992.52
2023-03-06T06:35:12.200Z,992.54
2023-03-06T06:36:12.163Z,992.51
2023-03-06T06:37:12.125Z,992.57
2023-03-06T06:38:12.091Z,992.5
2023-03-06T06:39:12.055Z,992.52
2023-03-06T06:40:12.021Z,992.49
2023-03-06T06:41:35.873Z,992.51
2023-03-06T06:42:41.777Z,992.49
2023-03-06T06:43:41.735Z,992.48
2023-03-06T06:44:41.721Z,992.47
2023-03-06T06:45:41.668Z,992.49
2023-03-06T06:47:41.940Z,992.46
2023-03-06T06:48:41.560Z,992.46
2023-03-06T06:49:41.524Z,992.44
2023-03-06T06:50:41.491Z,992.44
2023-03-06T06:51:41.455Z,992.47
2023-03-06T06:52:41.433Z,992.46
2023-03-06T06:53:41.385Z,992.48
2023-03-06T06:54:41.349Z,992.44
2023-03-06T06:55:41.312Z,992.48
2023-03-06T06:56:41.303Z,992.45
2023-03-06T06:57:41.246Z,992.42
2023-03-06T06:58:41.209Z,992.43
2023-03-06T06:59:41.196Z,992.44
2023-03-06T07:00:41.139Z,992.44
2023-03-06T07:01:41.149Z,992.45
2023-03-06T07:02:41.069Z,992.45
2023-03-06T07:03:41.108Z,992.45
2023-03-06T07:04:49.238Z,992.42
2023-03-06T07:05:40.965Z,992.45
2023-03-06T07:06:40.934Z,992.43
2023-03-06T07:07:40.896Z,992.45
2023-03-06T07:08:40.858Z,992.46
2023-03-06T07:09:40.824Z,992.42
2023-03-06T07:10:40.788Z,992.47
2023-03-06T07:11:40.793Z,992.45
2023-03-06T07:12:40.742Z,992.44
2023-03-06T07:13:40.683Z,992.52
2023-03-06T07:14:40.651Z,992.42
2023-03-06T07:15:40.630Z,992.44
2023-03-06T07:16:40.580Z,992.46
2023-03-06T07:17:40.542Z,992.45
2023-03-06T07:18:40.512Z,992.43
2023-03-06T07:19:40.474Z,992.48
2023-03-06T07:20:40.438Z,992.47
2023-03-06T07:21:40.408Z,992.48
2023-03-06T07:22:50.196Z,992.44
2023-03-06T07:23:40.338Z,992.46
2023-03-06T07:24:40.313Z,992.46
2023-03-06T07:25:40.268Z,992.45
2023-03-06T07:26:40.230Z,992.46
2023-03-06T07:27:40.224Z,992.45
2023-03-06T07:28:51.828Z,992.49
2023-03-06T07:29:40.138Z,992.5
2023-03-06T07:30:40.089Z,992.47
2023-03-06T07:31:40.154Z,992.49
2023-03-06T07:32:40.066Z,992.5
2023-03-06T07:33:39.993Z,992.5
2023-03-06T07:34:39.959Z,992.55
2023-03-06T07:35:39.922Z,992.51
2023-03-06T07:36:39.882Z,992.56
2023-03-06T07:37:39.851Z,992.53
2023-03-06T07:38:39.813Z,992.52
2023-03-06T07:39:39.780Z,992.54
2023-03-06T07:40:39.746Z,992.54
2023-03-06T07:41:39.711Z,992.51
2023-03-06T07:42:39.687Z,992.67
2023-03-06T07:43:39.641Z,992.53
2023-03-06T07:44:39.635Z,992.53
2023-03-06T07:45:39.577Z,992.59
2023-03-06T07:46:39.623Z,992.55
2023-03-06T07:47:39.514Z,992.54
2023-03-06T07:48:39.479Z,992.49
2023-03-06T07:49:39.437Z,992.52
2023-03-06T07:50:39.402Z,992.55
2023-03-06T07:51:39.370Z,992.47
2023-03-06T07:52:39.334Z,992.53
2023-03-06T07:53:39.301Z,992.53
2023-03-06T07:54:39.270Z,992.55
2023-03-06T07:55:39.237Z,992.56
2023-03-06T07:56:39.202Z,992.59
2023-03-06T07:57:39.162Z,992.63
2023-03-06T07:58:39.126Z,992.57
2023-03-06T07:59:39.108Z,992.58
2023-03-06T08:00:39.083Z,992.61
2023-03-06T08:01:39.028Z,992.58
2023-03-06T08:02:39.020Z,992.57
2023-03-06T08:03:38.974Z,992.62
2023-03-06T08:04:38.924Z,992.61
2023-03-06T08:05:38.893Z,992.57
2023-03-06T08:06:38.866Z,992.6
2023-03-06T08:07:38.828Z,992.57
2023-03-06T08:08:38.788Z,992.56
2023-03-06T08:09:38.760Z,992.54
2023-03-06T08:10:38.746Z,992.57
2023-03-06T08:11:38.681Z,992.65
2023-03-06T08:12:38.649Z,992.6
2023-03-06T08:13:38.614Z,992.59
2023-03-06T08:14:38.579Z,992.59
2023-03-06T08:15:38.544Z,992.54
2023-03-06T08:16:38.602Z,992.63
2023-03-06T08:17:38.474Z,992.6
2023-03-06T08:18:38.440Z,992.61
2023-03-06T08:19:38.405Z,992.54
2023-03-06T08:20:38.379Z,992.56
2023-03-06T08:21:38.338Z,992.56
2023-03-06T08:22:38.305Z,992.56
2023-03-06T08:23:38.271Z,992.56
2023-03-06T08:24:38.240Z,992.57
2023-03-06T08:25:38.199Z,992.53
2023-03-06T08:26:38.167Z,992.53
2023-03-06T08:27:38.134Z,992.56
2023-03-06T08:28:38.130Z,992.55
2023-03-06T08:29:38.064Z,992.52
2023-03-06T08:30:38.040Z,992.52
2023-03-06T08:31:38.097Z,992.56
2023-03-06T08:32:38.135Z,992.55
2023-03-06T08:33:37.930Z,992.5
2023-03-06T08:34:37.896Z,992.58
2023-03-06T08:35:37.893Z,992.42
2023-03-06T08:36:37.824Z,992.48
2023-03-06T08:37:37.797Z,992.52
2023-03-06T08:38:37.757Z,992.54
2023-03-06T08:39:37.723Z,992.44
2023-03-06T08:40:37.688Z,992.46
2023-03-06T08:41:37.653Z,992.5
2023-03-06T08:42:37.624Z,992.51
2023-03-06T08:43:37.585Z,992.54
2023-03-06T08:44:37.550Z,992.49
2023-03-06T08:45:37.553Z,992.52
2023-03-06T08:46:37.500Z,992.52
2023-03-06T08:47:37.446Z,992.59
2023-03-06T08:48:37.447Z,992.51
2023-03-06T08:49:37.378Z,992.57
2023-03-06T08:50:37.348Z,992.54
2023-03-06T08:51:37.310Z,992.55
2023-03-06T08:52:37.277Z,992.53
2023-03-06T08:53:42.938Z,992.49
2023-03-06T08:54:37.226Z,992.5
2023-03-06T08:55:37.173Z,992.52
2023-03-06T08:56:37.150Z,992.53
2023-03-06T08:57:37.106Z,992.53
2023-03-06T08:58:37.073Z,992.48
2023-03-06T08:59:37.038Z,992.53
2023-03-06T09:00:37.025Z,992.48
2023-03-06T09:01:37.018Z,992.42
2023-03-06T09:02:37.026Z,992.47
2023-03-06T09:03:36.906Z,992.5
2023-03-06T09:04:36.901Z,992.54
2023-03-06T09:05:36.836Z,992.52
2023-03-06T09:06:36.803Z,992.52
2023-03-06T09:07:36.770Z,992.51
2023-03-06T09:08:36.741Z,992.46
2023-03-06T09:09:36.703Z,992.49
2023-03-06T09:10:36.724Z,992.47
2023-03-06T09:11:36.639Z,992.62
2023-03-06T09:12:47.428Z,992.55
2023-03-06T09:13:36.569Z,992.53
2023-03-06T09:14:36.562Z,992.5
2023-03-06T09:15:36.507Z,992.59
2023-03-06T09:16:36.527Z,992.47
2023-03-06T09:17:36.445Z,992.5
2023-03-06T09:18:36.400Z,992.53
2023-03-06T09:19:36.371Z,992.48
2023-03-06T09:20:36.360Z,992.5
2023-03-06T09:21:36.303Z,992.53
2023-03-06T09:22:36.264Z,992.55
2023-03-06T09:23:36.235Z,992.54
2023-03-06T09:24:36.201Z,992.57
2023-03-06T09:25:36.167Z,992.58
2023-03-06T09:26:45.329Z,992.57
2023-03-06T09:27:36.100Z,992.59
2023-03-06T09:28:36.063Z,992.66
2023-03-06T09:29:36.048Z,992.64
2023-03-06T09:30:36.020Z,992.64
2023-03-06T09:31:35.964Z,992.67
2023-03-06T09:32:35.960Z,992.61
2023-03-06T09:33:35.896Z,992.63
2023-03-06T09:34:35.867Z,992.64
2023-03-06T09:35:35.875Z,992.68
2023-03-06T09:36:45.826Z,992.68
2023-03-06T09:37:35.760Z,992.67
2023-03-06T09:38:35.742Z,992.62
2023-03-06T09:39:35.693Z,992.67
2023-03-06T09:40:35.656Z,992.7
2023-03-06T09:41:35.633Z,992.65
2023-03-06T09:42:36.172Z,992.71
2023-03-06T09:43:35.552Z,992.67
2023-03-06T09:44:35.520Z,992.66
2023-03-06T09:45:35.487Z,992.69
2023-03-06T09:46:35.454Z,992.7
2023-03-06T09:47:35.427Z,992.71
2023-03-06T09:48:35.386Z,992.66
2023-03-06T09:49:35.365Z,992.66
2023-03-06T09:50:35.311Z,992.64
2023-03-06T09:51:35.277Z,992.66
2023-03-06T09:52:35.383Z,992.62
2023-03-06T09:53:35.211Z,992.63
2023-03-06T09:54:35.187Z,992.64
2023-03-06T09:55:35.149Z,992.65
2023-03-06T09:56:35.114Z,992.65
2023-03-06T09:57:35.076Z,992.64
2023-03-06T09:58:35.046Z,992.67
2023-03-06T09:59:35.010Z,992.61
2023-03-06T10:00:34.977Z,992.63
2023-03-06T10:01:34.959Z,992.64
2023-03-06T10:02:34.982Z,992.63
2023-03-06T10:03:34.876Z,992.6
2023-03-06T10:04:34.874Z,992.68
2023-03-06T10:05:34.809Z,992.63
2023-03-06T10:06:34.780Z,992.72
2023-03-06T10:07:34.748Z,992.66
2023-03-06T10:08:34.735Z,992.7
2023-03-06T10:09:34.676Z,992.69
2023-03-06T10:10:34.645Z,992.68
2023-03-06T10:11:34.609Z,992.72
2023-03-06T10:12:34.577Z,992.71
2023-03-06T10:13:34.544Z,992.66
2023-03-06T10:14:34.532Z,992.71
2023-03-06T10:15:34.542Z,992.7
2023-03-06T10:16:34.443Z,992.67
2023-03-06T10:17:34.559Z,992.66
2023-03-06T10:18:34.379Z,992.66
2023-03-06T10:19:34.343Z,992.68
2023-03-06T10:20:34.311Z,992.64
2023-03-06T10:21:34.278Z,992.7
2023-03-06T10:22:34.242Z,992.66
2023-03-06T10:23:34.212Z,992.63
2023-03-06T10:24:34.198Z,992.57
2023-03-06T10:25:34.140Z,992.61
2023-03-06T10:26:34.201Z,992.6
2023-03-06T10:27:34.076Z,992.6
2023-03-06T10:28:35.412Z,992.61
2023-03-06T10:29:34.010Z,992.6
2023-03-06T10:30:33.978Z,992.63
2023-03-06T10:31:33.971Z,992.61
2023-03-06T10:32:42.806Z,992.6
2023-03-06T10:33:33.870Z,992.63
2023-03-06T10:34:33.837Z,992.65
2023-03-06T10:35:33.810Z,992.64
2023-03-06T10:36:33.771Z,992.62
2023-03-06T10:37:33.737Z,992.65
2023-03-06T10:38:33.702Z,992.63
2023-03-06T10:39:33.678Z,992.66
2023-03-06T10:40:33.665Z,992.6
2023-03-06T10:41:33.601Z,992.66
2023-03-06T10:42:33.585Z,992.66
2023-03-06T10:43:36.244Z,992.69
2023-03-06T10:44:33.501Z,992.66
2023-03-06T10:45:47.362Z,992.68
2023-03-06T10:46:33.459Z,992.65
2023-03-06T10:47:33.416Z,992.7
2023-03-06T10:48:33.366Z,992.68
2023-03-06T10:49:33.341Z,992.67
2023-03-06T10:50:33.310Z,992.71
2023-03-06T10:51:33.281Z,992.68
2023-03-06T10:52:33.232Z,992.68
2023-03-06T10:53:33.201Z,992.63
2023-03-06T10:54:33.168Z,992.66
2023-03-06T10:55:33.135Z,992.67
2023-03-06T10:56:33.124Z,992.64
2023-03-06T10:57:33.071Z,992.68
2023-03-06T10:58:33.046Z,992.7
2023-03-06T10:59:33.006Z,992.72
2023-03-06T11:00:32.966Z,992.65
2023-03-06T11:01:33.023Z,992.74
2023-03-06T11:02:32.900Z,992.68
2023-03-06T11:03:32.868Z,992.69
2023-03-06T11:04:32.897Z,992.68
2023-03-06T11:05:32.804Z,992.71
2023-03-06T11:06:32.767Z,992.68
2023-03-06T11:07:32.744Z,992.68
2023-03-06T11:08:32.708Z,992.72
2023-03-06T11:09:32.669Z,992.68
2023-03-06T11:10:32.633Z,992.66
2023-03-06T11:11:37.665Z,992.68
2023-03-06T11:12:32.606Z,992.7
2023-03-06T11:13:32.536Z,992.68
2023-03-06T11:14:32.499Z,992.69
2023-03-06T11:15:32.468Z,992.69
2023-03-06T11:16:32.562Z,992.68
2023-03-06T11:17:32.400Z,992.68
2023-03-06T11:18:32.370Z,992.68
2023-03-06T11:19:32.336Z,992.72
2023-03-06T11:20:44.863Z,992.74
2023-03-06T11:21:32.268Z,992.74
2023-03-06T11:22:32.233Z,992.73
2023-03-06T11:23:32.200Z,992.72
2023-03-06T11:24:32.180Z,992.7
2023-03-06T11:25:32.141Z,992.73
2023-03-06T11:26:32.099Z,992.71
2023-03-06T11:27:32.065Z,992.69
2023-03-06T11:28:32.054Z,992.76
2023-03-06T11:29:34.287Z,992.73
2023-03-06T11:30:31.962Z,992.67
2023-03-06T11:31:31.959Z,992.7
2023-03-06T11:32:31.903Z,992.74
2023-03-06T11:33:31.862Z,992.68
2023-03-06T11:34:31.829Z,992.65
2023-03-06T11:35:31.843Z,992.72
2023-03-06T11:36:31.764Z,992.65
2023-03-06T11:37:31.730Z,992.67
2023-03-06T11:38:31.697Z,992.65
2023-03-06T11:39:31.671Z,992.68
2023-03-06T11:40:31.631Z,992.66
2023-03-06T11:41:31.599Z,992.68
2023-03-06T11:42:31.564Z,992.67
2023-03-06T11:43:31.530Z,992.59
2023-03-06T11:44:31.527Z,992.68
2023-03-06T11:45:31.465Z,992.6
2023-03-06T11:46:31.449Z,992.63
2023-03-06T11:47:31.399Z,992.59
2023-03-06T11:48:31.369Z,992.64
2023-03-06T11:49:31.334Z,992.63
2023-03-06T11:50:31.304Z,992.57
2023-03-06T11:51:31.271Z,992.6
2023-03-06T11:52:31.237Z,992.6
2023-03-06T11:53:31.203Z,992.67
2023-03-06T11:54:31.179Z,992.68
2023-03-06T11:55:31.143Z,992.66
2023-03-06T11:56:31.751Z,992.67
2023-03-06T11:57:31.075Z,992.63
2023-03-06T11:58:31.049Z,992.64
2023-03-06T11:59:31.011Z,992.64
2023-03-06T12:00:31.010Z,992.62
2023-03-06T12:01:30.950Z,992.59
2023-03-06T12:02:30.918Z,992.59
2023-03-06T12:03:30.886Z,992.57
2023-03-06T12:04:30.855Z,992.6
2023-03-06T12:05:30.838Z,992.57
2023-03-06T12:06:30.792Z,992.58
2023-03-06T12:07:30.758Z,992.54
2023-03-06T12:08:30.727Z,992.54
2023-03-06T12:09:30.694Z,992.56
2023-03-06T12:10:30.668Z,992.55
2023-03-06T12:11:31.587Z,992.53
2023-03-06T12:12:30.599Z,992.5
2023-03-06T12:13:30.567Z,992.51
2023-03-06T12:14:30.536Z,992.48
2023-03-06T12:15:30.510Z,992.49
2023-03-06T12:16:30.520Z,992.52
2023-03-06T12:17:30.445Z,992.48
2023-03-06T12:18:30.413Z,992.51
2023-03-06T12:19:30.376Z,992.43
2023-03-06T12:20:30.359Z,992.35
2023-03-06T12:21:30.687Z,992.42
2023-03-06T12:22:31.250Z,992.38
2023-03-06T12:23:30.252Z,992.39
2023-03-06T12:24:30.235Z,992.33
2023-03-06T12:25:30.196Z,992.33
2023-03-06T12:26:30.159Z,992.33
2023-03-06T12:27:30.129Z,992.3
2023-03-06T12:28:30.111Z,992.29
2023-03-06T12:29:30.067Z,992.26
2023-03-06T12:30:30.035Z,992.24
2023-03-06T12:31:30.035Z,992.23
2023-03-06T12:32:30.011Z,992.2